createdAt,value
2023-02-18T00:01:16.403Z,6.79
2023-02-18T00:03:33.068Z,6.76
2023-02-18T00:05:48.589Z,6.72
2023-02-18T00:08:06.663Z,6.69
2023-02-18T00:10:24.848Z,6.65
2023-02-18T00:12:42.908Z,6.53
2023-02-18T00:15:00.979Z,6.48
2023-02-18T00:17:21.587Z,6.47
2023-02-18T00:19:37.150Z,6.58
2023-02-18T00:21:56.267Z,6.50
2023-02-18T00:24:12.842Z,6.51
2023-02-18T00:26:30.925Z,6.44
2023-02-18T00:28:46.532Z,6.40
2023-02-18T00:31:01.209Z,6.43
2023-02-18T00:33:19.182Z,6.35
2023-02-18T00:35:34.742Z,6.32
2023-02-18T00:37:50.354Z,6.35
2023-02-18T00:40:05.919Z,6.28
2023-02-18T00:42:21.506Z,6.26
2023-02-18T00:44:39.632Z,6.33
2023-02-18T00:46:57.662Z,6.26
2023-02-18T00:49:13.258Z,6.21
2023-02-18T00:51:28.859Z,6.19
2023-02-18T00:53:44.439Z,6.18
2023-02-18T00:56:02.527Z,6.10
2023-02-18T00:58:21.179Z,6.07
2023-02-18T01:00:35.265Z,6.07
2023-02-18T01:02:50.847Z,6.21
2023-02-18T01:05:08.924Z,6.22
2023-02-18T01:07:23.557Z,6.26
2023-02-18T01:09:41.097Z,6.18
2023-02-18T01:11:59.223Z,6.10
2023-02-18T01:14:17.303Z,6.14
2023-02-18T01:16:37.867Z,6.06
2023-02-18T01:18:55.963Z,6.11
2023-02-18T01:21:10.522Z,6.10
2023-02-18T01:23:28.620Z,6.13
2023-02-18T01:25:46.688Z,6.16
2023-02-18T01:28:04.787Z,6.22
2023-02-18T01:30:22.916Z,6.28
2023-02-18T01:32:37.445Z,6.25
2023-02-18T01:34:55.636Z,6.18
2023-02-18T01:37:13.705Z,6.25
2023-02-18T01:39:31.803Z,6.18
2023-02-18T01:41:47.396Z,6.14
2023-02-18T01:44:05.467Z,6.21
2023-02-18T01:46:23.550Z,6.25
2023-02-18T01:48:39.745Z,6.28
2023-02-18T01:50:54.737Z,6.26
2023-02-18T01:53:09.317Z,6.19
2023-02-18T01:55:27.384Z,6.30
2023-02-18T01:57:43.935Z,6.29
2023-02-18T02:00:02.046Z,6.26
2023-02-18T02:02:17.632Z,6.19
2023-02-18T02:04:33.231Z,6.18
2023-02-18T02:06:48.826Z,6.14
2023-02-18T02:09:06.891Z,6.13
2023-02-18T02:11:24.984Z,6.11
2023-02-18T02:13:43.104Z,6.10
2023-02-18T02:15:58.681Z,6.04
2023-02-18T02:18:13.282Z,6.09
2023-02-18T02:20:27.845Z,6.10
2023-02-18T02:22:42.464Z,6.19
2023-02-18T02:25:00.616Z,6.16
2023-02-18T02:27:18.713Z,6.09
2023-02-18T02:29:34.307Z,6.07
2023-02-18T02:31:49.919Z,6.14
2023-02-18T02:34:07.980Z,6.16
2023-02-18T02:36:22.539Z,6.11
2023-02-18T02:38:36.161Z,6.13
2023-02-18T02:40:49.712Z,6.07
2023-02-18T02:43:05.300Z,6.11
2023-02-18T02:45:20.885Z,6.18
2023-02-18T02:47:36.482Z,6.18
2023-02-18T02:49:52.075Z,6.10
2023-02-18T02:52:07.663Z,6.03
2023-02-18T02:54:23.282Z,5.93
2023-02-18T02:56:34.354Z,5.93
2023-02-18T02:58:49.940Z,5.89
2023-02-18T03:01:05.618Z,5.85
2023-02-18T03:03:21.136Z,5.85
2023-02-18T03:05:36.743Z,5.83
2023-02-18T03:07:51.308Z,5.91
2023-02-18T03:10:06.880Z,5.91
2023-02-18T03:12:22.517Z,5.96
2023-02-18T03:14:40.571Z,5.89
2023-02-18T03:16:56.197Z,5.92
2023-02-18T03:19:09.235Z,5.91
2023-02-18T03:21:24.861Z,5.88
2023-02-18T03:23:40.440Z,5.88
2023-02-18T03:25:56.026Z,5.92
2023-02-18T03:28:12.554Z,5.98
2023-02-18T03:30:29.735Z,6.04
2023-02-18T03:32:45.262Z,6.09
2023-02-18T03:35:01.871Z,6.04
2023-02-18T03:37:17.452Z,6.04
2023-02-18T03:39:33.013Z,6.04
2023-02-18T03:41:49.626Z,5.96
2023-02-18T03:44:05.205Z,5.92
2023-02-18T03:46:20.850Z,5.98
2023-02-18T03:48:33.878Z,5.98
2023-02-18T03:50:49.474Z,5.93
2023-02-18T03:53:05.071Z,5.91
2023-02-18T03:55:20.662Z,5.81
2023-02-18T03:57:38.740Z,5.91
2023-02-18T03:59:56.815Z,5.91
2023-02-18T04:02:12.411Z,5.83
2023-02-18T04:04:30.520Z,5.82
2023-02-18T04:06:46.060Z,5.77
2023-02-18T04:09:04.241Z,5.86
2023-02-18T04:11:19.794Z,5.96
2023-02-18T04:13:33.370Z,5.93
2023-02-18T04:15:48.972Z,5.91
2023-02-18T04:18:04.554Z,5.86
2023-02-18T04:20:19.163Z,5.81
2023-02-18T04:22:33.713Z,5.75
2023-02-18T04:24:49.286Z,5.71
2023-02-18T04:27:02.889Z,5.67
2023-02-18T04:29:20.995Z,5.60
2023-02-18T04:31:36.621Z,5.63
2023-02-18T04:33:54.659Z,5.59
2023-02-18T04:36:10.484Z,5.68
2023-02-18T04:38:25.143Z,5.75
2023-02-18T04:40:42.916Z,5.75
2023-02-18T04:43:01.051Z,5.70
2023-02-18T04:45:16.595Z,5.74
2023-02-18T04:47:32.691Z,5.78
2023-02-18T04:49:50.258Z,5.86
2023-02-18T04:52:05.851Z,5.91
2023-02-18T04:54:23.958Z,5.92
2023-02-18T04:56:39.510Z,5.96
2023-02-18T04:58:55.122Z,5.96
2023-02-18T05:01:13.269Z,6.04
2023-02-18T05:03:27.779Z,6.13
2023-02-18T05:05:43.384Z,6.21
2023-02-18T05:07:58.955Z,6.26
2023-02-18T05:10:17.019Z,6.28
2023-02-18T05:12:35.133Z,6.32
2023-02-18T05:14:50.708Z,6.28
2023-02-18T05:17:08.831Z,6.32
2023-02-18T05:19:26.868Z,6.36
2023-02-18T05:21:43.466Z,6.33
2023-02-18T05:23:59.046Z,6.30
2023-02-18T05:26:12.120Z,6.35
2023-02-18T05:28:27.755Z,6.41
2023-02-18T05:30:43.348Z,6.44
2023-02-18T05:32:58.890Z,6.44
2023-02-18T05:35:12.444Z,6.44
2023-02-18T05:37:28.074Z,6.43
2023-02-18T05:39:43.664Z,6.47
2023-02-18T05:41:59.225Z,6.48
2023-02-18T05:44:14.858Z,6.47
2023-02-18T05:46:32.940Z,6.47
2023-02-18T05:48:48.524Z,6.50
2023-02-18T05:51:04.132Z,6.48
2023-02-18T05:53:19.718Z,6.50
2023-02-18T05:55:35.325Z,6.53
2023-02-18T05:57:53.385Z,6.56
2023-02-18T06:00:08.985Z,6.56
2023-02-18T06:02:24.639Z,6.54
2023-02-18T06:04:42.669Z,6.47
2023-02-18T06:07:03.266Z,6.48
2023-02-18T06:09:18.842Z,6.44
2023-02-18T06:11:34.429Z,6.48
2023-02-18T06:13:49.034Z,6.48
2023-02-18T06:16:07.449Z,6.51
2023-02-18T06:18:21.693Z,6.54
2023-02-18T06:20:39.767Z,6.58
2023-02-18T06:22:57.842Z,6.62
2023-02-18T06:25:15.952Z,6.61
2023-02-18T06:27:34.035Z,6.58
2023-02-18T06:29:52.934Z,6.54
2023-02-18T06:32:12.813Z,6.51
2023-02-18T06:34:29.316Z,6.62
2023-02-18T06:36:47.416Z,6.63
2023-02-18T06:39:00.984Z,6.71
2023-02-18T06:41:19.893Z,6.72
2023-02-18T06:43:34.644Z,6.73
2023-02-18T06:45:50.241Z,6.76
2023-02-18T06:48:05.869Z,6.76
2023-02-18T06:50:21.407Z,6.79
2023-02-18T06:52:34.530Z,6.79
2023-02-18T06:54:50.070Z,6.83
2023-02-18T06:57:05.648Z,6.86
2023-02-18T06:59:21.268Z,6.95
2023-02-18T07:01:36.806Z,6.94
2023-02-18T07:03:54.946Z,6.95
2023-02-18T07:06:07.390Z,6.95
2023-02-18T07:08:22.561Z,7.02
2023-02-18T07:10:38.202Z,7.04
2023-02-18T07:12:53.758Z,7.02
2023-02-18T07:15:05.837Z,7.01
2023-02-18T07:17:23.912Z,7.02
2023-02-18T07:19:39.497Z,7.01
2023-02-18T07:21:55.098Z,7.01
2023-02-18T07:24:10.679Z,7.07
2023-02-18T07:26:28.755Z,7.15
2023-02-18T07:28:46.846Z,7.13
2023-02-18T07:31:04.972Z,7.16
2023-02-18T07:33:23.031Z,7.12
2023-02-18T07:35:41.112Z,7.08
2023-02-18T07:38:01.670Z,7.08
2023-02-18T07:40:17.268Z,7.08
2023-02-18T07:42:32.850Z,7.09
2023-02-18T07:44:50.958Z,7.15
2023-02-18T07:47:06.526Z,7.13
2023-02-18T07:49:22.090Z,7.15
2023-02-18T07:51:37.661Z,7.05
2023-02-18T07:53:52.122Z,6.99
2023-02-18T07:56:46.920Z,6.95
2023-02-18T09:05:44.078Z,6.71
2023-02-18T09:08:03.116Z,6.76
2023-02-18T09:10:23.873Z,6.71
2023-02-18T09:12:41.751Z,6.66
2023-02-18T09:15:02.352Z,6.68
2023-02-18T09:17:20.490Z,6.68
2023-02-18T09:19:41.033Z,6.65
2023-02-18T09:22:01.627Z,6.68
2023-02-18T09:24:22.233Z,6.69
2023-02-18T09:26:38.794Z,6.72
2023-02-18T09:28:55.680Z,6.79
2023-02-18T09:31:18.398Z,6.76
2023-02-18T09:33:35.894Z,6.63
2023-02-18T09:35:53.654Z,6.63
2023-02-18T09:38:28.260Z,6.65
2023-02-18T09:40:46.324Z,6.65
2023-02-18T09:43:04.423Z,6.66
2023-02-18T09:45:25.098Z,6.62
2023-02-18T09:47:46.100Z,6.62
2023-02-18T09:55:30.005Z,6.54
2023-02-18T09:57:48.102Z,6.61
2023-02-18T10:00:06.391Z,6.61
2023-02-18T10:02:25.401Z,6.56
2023-02-18T10:12:37.056Z,6.59
2023-02-18T10:18:06.479Z,6.69
2023-02-18T10:20:04.793Z,6.77
2023-02-18T10:22:20.720Z,6.87
2023-02-18T10:24:38.817Z,6.97
2023-02-18T10:26:59.422Z,7.02
2023-02-18T10:29:59.653Z,7.04
2023-02-18T10:32:21.210Z,7.07
2023-02-18T10:35:14.544Z,7.07
2023-02-18T10:37:49.046Z,7.08
2023-02-18T10:41:40.567Z,7.05
2023-02-18T10:51:16.782Z,7.17
2023-02-18T10:56:57.250Z,7.22
2023-02-18T11:08:50.321Z,7.16
2023-02-18T11:15:14.750Z,7.13
2023-02-18T11:18:38.196Z,7.12
2023-02-18T11:22:12.214Z,7.13
2023-02-18T11:24:30.864Z,7.08
2023-02-18T11:33:57.811Z,7.12
2023-02-18T11:49:57.569Z,7.45
2023-02-18T12:09:12.161Z,8.04
2023-02-18T12:11:30.502Z,8.14
2023-02-18T12:15:07.684Z,8.29
2023-02-18T12:22:53.005Z,8.62
2023-02-18T12:26:52.360Z,8.83
2023-02-18T12:27:53.026Z,8.87
2023-02-18T12:30:12.841Z,9.13
2023-02-18T12:32:33.431Z,9.32
2023-02-18T12:34:51.256Z,9.43
2023-02-18T12:37:11.920Z,9.57
2023-02-18T12:42:00.750Z,9.94
2023-02-18T12:44:19.059Z,10.04
2023-02-18T13:38:06.097Z,10.51
2023-02-18T13:49:56.107Z,10.55
2023-02-18T14:16:15.575Z,10.65
2023-02-18T14:18:37.136Z,10.63
2023-02-18T14:20:50.632Z,10.62
2023-02-18T14:23:07.208Z,10.58
2023-02-18T14:25:25.712Z,10.55
2023-02-18T14:27:46.133Z,10.71
2023-02-18T14:30:03.962Z,10.71
2023-02-18T14:32:24.672Z,10.68
2023-02-18T14:34:45.465Z,10.60
2023-02-18T14:37:01.305Z,10.59
2023-02-18T14:39:18.521Z,10.62
2023-02-18T14:41:38.258Z,10.59
2023-02-18T14:43:56.676Z,10.58
2023-02-18T14:46:14.766Z,10.52
2023-02-18T14:48:36.330Z,10.56
2023-02-18T14:50:54.211Z,10.66
2023-02-18T14:53:17.420Z,10.68
2023-02-18T14:55:35.955Z,10.71
2023-02-18T14:57:56.503Z,10.70
2023-02-18T15:00:17.132Z,10.70
2023-02-18T15:02:37.707Z,10.62
2023-02-18T15:04:58.479Z,10.60
2023-02-18T15:07:19.201Z,10.59
2023-02-18T15:09:39.740Z,10.63
2023-02-18T15:12:00.552Z,10.65
2023-02-18T15:14:17.022Z,10.70
2023-02-18T15:16:37.656Z,10.77
2023-02-18T15:18:58.216Z,10.76
2023-02-18T15:21:54.646Z,10.66
2023-02-18T15:24:11.264Z,10.60
2023-02-18T15:26:31.892Z,10.58
2023-02-18T15:28:48.704Z,10.53
2023-02-18T15:31:47.380Z,10.47
2023-02-18T15:34:07.921Z,10.44
2023-02-18T15:36:26.019Z,10.40
2023-02-18T15:38:46.518Z,10.30
2023-02-18T15:41:04.185Z,10.26
2023-02-18T15:43:21.506Z,10.26
2023-02-18T15:45:48.624Z,10.21
2023-02-18T15:48:08.019Z,10.18
2023-02-18T15:50:26.278Z,10.14
2023-02-18T15:52:42.761Z,10.15
2023-02-18T15:55:00.711Z,10.09
2023-02-18T15:57:23.164Z,10.09
2023-02-18T16:01:58.048Z,10.04
2023-02-18T16:04:31.566Z,10.03
2023-02-18T16:09:44.710Z,10.03
2023-02-18T16:12:17.314Z,10.01
2023-02-18T16:14:35.657Z,10.00
2023-02-18T16:16:57.066Z,10.00
2023-02-18T16:19:17.649Z,10.00
2023-02-18T16:21:38.949Z,9.97
2023-02-18T16:24:15.312Z,9.97
2023-02-18T16:26:59.847Z,9.93
2023-02-18T16:29:20.695Z,9.86
2023-02-18T16:47:28.230Z,9.64
2023-02-18T16:54:21.618Z,9.46
2023-02-18T17:00:40.669Z,9.28
2023-02-18T17:02:57.229Z,9.10
2023-02-18T17:06:13.560Z,8.83
2023-02-18T17:09:09.299Z,8.63
2023-02-18T17:11:24.272Z,8.50
2023-02-18T17:13:44.589Z,8.36
2023-02-18T17:16:02.820Z,8.30
2023-02-18T17:20:57.603Z,8.10
2023-02-18T17:23:12.895Z,8.03
2023-02-18T17:25:30.767Z,7.96
2023-02-18T17:27:48.077Z,7.92
2023-02-18T17:33:43.582Z,7.82
2023-02-18T17:36:00.756Z,7.84
2023-02-18T17:55:23.793Z,7.47
2023-02-18T17:57:42.549Z,7.42
2023-02-18T17:59:58.397Z,7.41
2023-02-18T18:02:10.386Z,7.41
2023-02-18T18:04:26.003Z,7.35
2023-02-18T18:06:42.609Z,7.31
2023-02-18T18:08:58.242Z,7.32
2023-02-18T18:11:14.153Z,7.29
2023-02-18T18:13:29.689Z,7.27
2023-02-18T18:15:45.296Z,7.27
2023-02-18T18:18:00.876Z,7.27
2023-02-18T18:20:16.428Z,7.29
2023-02-18T18:22:32.012Z,7.27
2023-02-18T18:24:46.587Z,7.26
2023-02-18T18:27:00.170Z,7.24
2023-02-18T18:29:12.370Z,7.24
2023-02-18T18:31:30.507Z,7.23
2023-02-18T18:33:46.022Z,7.22
2023-02-18T18:36:02.644Z,7.23
2023-02-18T18:38:20.709Z,7.19
2023-02-18T18:40:36.335Z,7.16
2023-02-18T18:53:10.744Z,7.01
2023-02-18T19:13:29.692Z,6.87
2023-02-18T20:11:08.709Z,6.59
2023-02-18T20:25:09.243Z,6.53
2023-02-18T20:35:27.663Z,6.50
2023-02-18T21:05:50.170Z,6.28
2023-02-18T21:10:42.041Z,6.25
2023-02-18T21:12:57.678Z,6.26
2023-02-18T21:15:24.178Z,6.26
2023-02-18T21:17:39.773Z,6.26
2023-02-18T21:19:57.371Z,6.26
2023-02-18T21:22:08.864Z,6.25
2023-02-18T21:24:20.955Z,6.26
2023-02-18T21:26:34.547Z,6.25
2023-02-18T21:28:48.128Z,6.25
2023-02-18T21:31:00.818Z,6.26
2023-02-18T21:33:13.314Z,6.22
2023-02-18T21:35:26.845Z,6.21
2023-02-18T21:37:40.438Z,6.19
2023-02-18T21:39:53.520Z,6.14
2023-02-18T21:42:07.116Z,6.13
2023-02-18T21:44:21.478Z,6.11
2023-02-18T21:46:32.841Z,6.13
2023-02-18T21:48:44.860Z,6.11
2023-02-18T21:50:57.944Z,6.11
2023-02-18T21:53:11.544Z,6.09
2023-02-18T21:55:26.224Z,6.04
2023-02-18T21:57:37.214Z,6.04
2023-02-18T21:59:50.793Z,6.00
2023-02-18T22:02:03.913Z,6.00
2023-02-18T22:04:19.436Z,5.95
2023-02-18T22:06:33.059Z,5.92
2023-02-18T22:08:46.617Z,5.91
2023-02-18T22:10:58.711Z,5.89
2023-02-18T22:13:14.276Z,5.89
2023-02-18T22:15:27.870Z,5.88
2023-02-18T22:17:39.995Z,5.92
2023-02-18T22:19:53.570Z,5.91
2023-02-18T22:22:09.142Z,5.88
2023-02-18T22:24:27.516Z,5.85
2023-02-18T22:26:41.181Z,5.85
2023-02-18T22:28:56.786Z,5.82
2023-02-18T22:31:12.760Z,5.81
2023-02-18T22:33:30.710Z,5.81
2023-02-18T22:35:43.812Z,5.82
2023-02-18T22:37:59.373Z,5.81
2023-02-18T22:40:12.994Z,5.77
2023-02-18T22:42:29.374Z,5.75
2023-02-18T22:44:44.124Z,5.73
2023-02-18T22:46:57.803Z,5.70
2023-02-18T22:49:13.375Z,5.66
2023-02-18T22:51:25.524Z,5.59
2023-02-18T22:53:37.611Z,5.56
2023-02-18T22:55:51.179Z,5.55
2023-02-18T22:58:04.284Z,5.53
2023-02-18T23:00:19.833Z,5.52
2023-02-18T23:02:40.448Z,5.49
2023-02-18T23:04:52.536Z,5.48
2023-02-18T23:07:08.145Z,5.49
2023-02-18T23:09:23.724Z,5.53
2023-02-18T23:11:39.290Z,5.53
2023-02-18T23:13:54.893Z,5.53
2023-02-18T23:16:10.461Z,5.50
2023-02-18T23:18:26.030Z,5.48
2023-02-18T23:20:44.145Z,5.40
2023-02-18T23:23:02.207Z,5.37
2023-02-18T23:25:20.292Z,5.34
2023-02-18T23:27:35.908Z,5.31
2023-02-18T23:29:52.484Z,5.30
2023-02-18T23:32:08.133Z,5.30
2023-02-18T23:34:23.655Z,5.28
2023-02-18T23:36:39.283Z,5.27
2023-02-18T23:38:57.336Z,5.27
2023-02-18T23:41:15.415Z,5.25
2023-02-18T23:43:33.551Z,5.30
2023-02-18T23:45:48.108Z,5.23
2023-02-18T23:48:06.198Z,5.28
2023-02-18T23:50:21.756Z,5.28
2023-02-18T23:52:37.349Z,5.30
2023-02-18T23:54:55.431Z,5.31
2023-02-18T23:57:11.841Z,5.32
2023-02-18T23:59:26.660Z,5.35
